»·PEaware :: CAP428 KCEC-KOTH

CAP428 :: KCEC-KOTH

FLIGHT INFORMATION

Flight Status: Arrived
Operator: Unknown
More flights by this operator :: More flights under this callsign
Pilot: Armando C. (16967)
Aircraft: CESSNA 182 SKYLANE
(C182)
More flights by this aircraft type
Origin: KCEC McNamara
United States
Destination: KOTH North Bend Mun
United States
More flights between these airports :: More routes between these airports
Route: CEC V27 OVLEE
File this flight plan on PilotEdge
Remarks:
Altitude:
(Current/Filed)
10,000ft
Speed:
(Current/Filed)
135kts
Departed: 23-Dec-17 03:48 AM
Arrived: 23-Dec-17 04:38 AM
Distance/Time
Traveled:
98nm/0:50
Distance/Time
To Go:
Arrived

Flight Plot

Page will automatically refresh every two minutes.

Flight plan parsing failed; only flown route is shown


Map Options




Map Legend


Flown Route
Filed Route
Departure Airport
Arrival Airport
Navaid (VOR, NDB)
Fix

Horizontal Profiles

Position Reports

Time Latitude Longitude Heading Altitude Ground
Speed
23-Dec-17 03:42 41.778025 -124.234128 33 60ft 0kts
23-Dec-17 03:43 41.778025 -124.234128 33 60ft 0kts
23-Dec-17 03:44 41.777835 -124.233454 135 60ft 7kts
23-Dec-17 03:45 41.775673 -124.229948 90 60ft 2kts
23-Dec-17 03:46 41.775672 -124.229939 90 60ft 0kts
23-Dec-17 03:47 41.775672 -124.229938 90 60ft 0kts
23-Dec-17 03:48 41.775672 -124.229936 90 60ft 0kts
23-Dec-17 03:49 41.775672 -124.229935 90 60ft 0kts
23-Dec-17 03:50 41.775672 -124.229933 90 60ft 0kts
23-Dec-17 03:51 41.775672 -124.229889 89 60ft 0kts
23-Dec-17 03:52 41.775672 -124.229887 89 60ft 0kts
23-Dec-17 03:53 41.775672 -124.229885 89 60ft 0kts
23-Dec-17 03:54 41.781950 -124.237412 310 205ft 81kts
23-Dec-17 03:55 41.798025 -124.263414 311 1255ft 98kts
23-Dec-17 03:56 41.825574 -124.266629 22 2245ft 111kts
23-Dec-17 03:57 41.854244 -124.251272 23 3364ft 101kts
23-Dec-17 03:58 41.882897 -124.238171 11 3867ft 113kts
23-Dec-17 03:59 41.915247 -124.235124 4 4369ft 119kts
23-Dec-17 04:00 41.949166 -124.233564 2 4868ft 124kts
23-Dec-17 04:01 41.984103 -124.232064 2 5369ft 126kts
23-Dec-17 04:02 42.019338 -124.230644 8 5922ft 120kts
23-Dec-17 04:03 42.053924 -124.229037 8 6318ft 125kts
23-Dec-17 04:04 42.089564 -124.227472 8 6670ft 130kts
23-Dec-17 04:05 42.127900 -124.225767 5 6988ft 143kts
23-Dec-17 04:06 42.168538 -124.224006 3 7293ft 148kts
23-Dec-17 04:07 42.210114 -124.222188 0 7595ft 150kts
23-Dec-17 04:08 42.252009 -124.220369 358 7859ft 152kts
23-Dec-17 04:09 42.295999 -124.218478 358 7858ft 161kts
23-Dec-17 04:10 42.341253 -124.216479 358 7851ft 162kts
23-Dec-17 04:11 42.386210 -124.214472 357 7890ft 160kts
23-Dec-17 04:12 42.430838 -124.212535 357 7901ft 160kts
23-Dec-17 04:13 42.475658 -124.210579 357 7889ft 161kts
23-Dec-17 04:14 42.520569 -124.208594 357 7888ft 161kts
23-Dec-17 04:15 42.564808 -124.206570 355 7979ft 155kts
23-Dec-17 04:16 42.608112 -124.204717 354 7992ft 156kts
23-Dec-17 04:17 42.651868 -124.202813 355 7962ft 159kts
23-Dec-17 04:18 42.696078 -124.200835 355 7956ft 158kts
23-Dec-17 04:19 42.739083 -124.198832 352 8070ft 148kts
23-Dec-17 04:20 42.780459 -124.197071 352 8094ft 148kts
23-Dec-17 04:21 42.822240 -124.195249 352 8068ft 151kts
23-Dec-17 04:22 42.864354 -124.193351 353 8064ft 151kts
23-Dec-17 04:23 42.906141 -124.191422 351 8125ft 145kts
23-Dec-17 04:24 42.947363 -124.189657 353 7522ft 149kts
23-Dec-17 04:25 42.988941 -124.187788 354 6723ft 149kts
23-Dec-17 04:26 43.030349 -124.185938 356 5926ft 147kts
23-Dec-17 04:27 43.071127 -124.184079 356 5123ft 146kts
23-Dec-17 04:28 43.111671 -124.182272 357 4322ft 145kts
23-Dec-17 04:29 43.142149 -124.206793 304 3589ft 133kts
23-Dec-17 04:30 43.162902 -124.249017 292 2790ft 133kts
23-Dec-17 04:31 43.175605 -124.294723 287 2400ft 116kts
23-Dec-17 04:32 43.188757 -124.333516 294 2412ft 115kts
23-Dec-17 04:33 43.206014 -124.372038 301 2409ft 120kts
23-Dec-17 04:34 43.227080 -124.407898 309 2406ft 121kts
23-Dec-17 04:35 43.251942 -124.440144 316 2290ft 131kts
23-Dec-17 04:36 43.283606 -124.471393 327 1710ft 145kts
23-Dec-17 04:37 43.319092 -124.466542 36 1316ft 136kts
23-Dec-17 04:38 43.343920 -124.431494 59 1307ft 124kts
23-Dec-17 04:39 43.361600 -124.391126 62 1305ft 122kts
23-Dec-17 04:40 43.377938 -124.350438 62 1307ft 121kts
23-Dec-17 04:41 43.392959 -124.313783 62 941ft 99kts
23-Dec-17 04:42 43.405564 -124.283159 63 411ft 86kts
23-Dec-17 04:43 43.416959 -124.255250 63 25ft 72kts
23-Dec-17 04:44 43.421859 -124.243222 65 20ft 21kts
23-Dec-17 04:45 43.420529 -124.240591 245 20ft 15kts
23-Dec-17 04:46 43.419146 -124.244846 243 20ft 19kts
23-Dec-17 04:47 43.417207 -124.246932 152 20ft 5kts
23-Dec-17 04:48 43.415815 -124.246881 242 20ft 0kts
23-Dec-17 04:49 43.415815 -124.246881 242 20ft 0kts

Navigation Log

Ident Type
Flight plan parsing failed, navigation log unavailable